Αναφορές Αεροδρομίων

 

KSJC - San Jose, California, USA
Distance from station: ΒΑ 14km
Ενημερώθηκε: 03/03/2024 00:53
Συννεφιά
Συννεφιά
 Ανεμος από Ν
Ανεμος: Ν 17 km/h
Θερμοκρασία: 12°C
Σημείο Δρόσου: 6°C
Υγρασία: 67%
Βαρόμετρο: 1010.8 hPa
Clouds: Συννεφιά
Visibility: 16 km
Cloud details: Few Clouds 701 m
Σχεδόν νεφελώδης 2134 m
Συννεφιά 4267 m
2024/03/02 22:53 KSJC 022253Z 19009KT 10SM FEW023 BKN070 OVC140 12/06 A2985 RMK AO2 RAB06E48 SLP107 P0000 T01170056
KNUQ - Moffett Nas/Mtn, California, USA
Distance from station: Β 14km
Ενημερώθηκε: 03/03/2024 01:15
Σχεδόν νεφελώδης
Σχεδόν νεφελώδης
 Ανεμος από Ν
Ανεμος: Ν 17 km/h
Θερμοκρασία: 11°C
Σημείο Δρόσου: 5°C
Υγρασία: 67%
Βαρόμετρο: 1010.5 hPa
Clouds: Σχεδόν νεφελώδης
Visibility: 14 km
Cloud details: Few Clouds 945 m
Μερικώς νεφελώδης 1158 m
Σχεδόν νεφελώδης 1524 m
2024/03/02 23:15 KNUQ 022315Z AUTO 19009KT 160V230 9SM FEW031 SCT038 BKN050 11/05 A2984 RMK AO2
 
KPAO - Palo Alto, California, USA
Distance from station: ΒΒΔ 23km
Ενημερώθηκε: 03/03/2024 00:47
Συννεφιά
Συννεφιά
 Ανεμος από ΝΝΔ
Ανεμος: ΝΝΔ 20 km/h, Ριπή: 31 km/h
Θερμοκρασία: 11°C
Σημείο Δρόσου: 4°C
Υγρασία: 62%
Βαρόμετρο: 1010.5 hPa
Clouds: Συννεφιά
Visibility: 16 km
Cloud details: Few Clouds 457 m
Συννεφιά 1219 m
2024/03/02 22:47 KPAO 022247Z 20011G17KT 10SM FEW015 OVC040 11/04 A2984
KRHV - San Jose/Reid, California, USA
Distance from station: ΑΒΑ 19km
Ενημερώθηκε: 03/03/2024 00:47
Σχεδόν νεφελώδης
Σχεδόν νεφελώδης
 Ανεμος από ΝΝΔ
Ανεμος: ΝΝΔ 13 km/h
Θερμοκρασία: 10°C
Wind Chill: 8°C
Σημείο Δρόσου: 5°C
Υγρασία: 71%
Βαρόμετρο: 1011.5 hPa
Clouds: Σχεδόν νεφελώδης
Visibility: 11 km
Cloud details: Σχεδόν νεφελώδης 1219 m
2024/03/02 22:47 KRHV 022247Z 21007KT 7SM BKN040 10/05 A2987
 
KOAK - Oakland, California, USA
Distance from station: ΒΒΔ 50km
Ενημερώθηκε: 03/03/2024 00:53
Ασθενής βροχή, Συννεφιά
Ασθενής βροχή, Συννεφιά
 Ανεμος από ΝΝΔ
Ανεμος: ΝΝΔ 37 km/h, Ριπή: 52 km/h
Θερμοκρασία: 12°C
Σημείο Δρόσου: 5°C
Υγρασία: 63%
Βαρόμετρο: 1009.8 hPa
Περίληψη: Ασθενής βροχή
Clouds: Συννεφιά
Visibility: 14 km
Cloud details: Few Clouds 1189 m
Συννεφιά 1676 m
2024/03/02 22:53 KOAK 022253Z 21020G28KT 9SM -RA FEW039 OVC055 12/05 A2982 RMK AO2 PK WND 20028/2252 RAB22 SLP096 P0000 T01170050
KSQL - San Carlos Airpo, California, USA
Distance from station: ΒΔ 34km
Ενημερώθηκε: 03/03/2024 00:57
Few Clouds
Few Clouds
 Ανεμος από ΝΔ
Ανεμος: ΝΔ 15 km/h
Θερμοκρασία: 10°C
Wind Chill: 8°C
Σημείο Δρόσου: 5°C
Υγρασία: 71%
Βαρόμετρο: 1010.5 hPa
Clouds: Few Clouds
Visibility: 8 km
Cloud details: Few Clouds 1067 m
2024/03/02 22:57 KSQL 022257Z 22008KT 5SM FEW035 10/05 A2984 -RA
 
KSFO - San Francisco, California, USA
Distance from station: ΒΔ 49km
Ενημερώθηκε: 03/03/2024 00:56
Ασθενής βροχή, Συννεφιά
Ασθενής βροχή, Συννεφιά
 Ανεμος από ΝΝΔ
Ανεμος: ΝΝΔ 37 km/h, Ριπή: 52 km/h
Θερμοκρασία: 11°C
Σημείο Δρόσου: 6°C
Υγρασία: 72%
Βαρόμετρο: 1009.8 hPa
Περίληψη: Ασθενής βροχή
Clouds: Συννεφιά
Visibility: 14 km
Cloud details: Few Clouds 518 m
Μερικώς νεφελώδης 1067 m
Συννεφιά 1311 m
2024/03/02 22:56 KSFO 022256Z 21020G28KT 9SM -RA FEW017 SCT035 OVC043 11/06 A2982 RMK AO2 PK WND 21032/2210 RAB06 SLP098 P0001 T01060056 $
KE16 - San Martin, California, USA
Distance from station: ΑΝΑ 43km
Ενημερώθηκε: 03/03/2024 00:55
Haze, Σχεδόν νεφελώδης
Haze, Σχεδόν νεφελώδης
 Ανεμος από ΝΔ
Ανεμος: ΝΔ 24 km/h, Ριπή: 39 km/h
Θερμοκρασία: 10°C
Wind Chill: 7°C
Σημείο Δρόσου: 5°C
Υγρασία: 71%
Βαρόμετρο: 1012.5 hPa
Περίληψη: Haze
Clouds: Σχεδόν νεφελώδης
Visibility: 6 km
Cloud details: Few Clouds 914 m
Μερικώς νεφελώδης 1067 m
Σχεδόν νεφελώδης 1433 m
2024/03/02 22:55 KE16 022255Z AUTO 22013G21KT 4SM HZ FEW030 SCT035 BKN047 10/05 A2990 RMK AO2 PWINO PNO
 
KWVI - Watsonville, California, USA
Distance from station: ΝΝΑ 44km
Ενημερώθηκε: 03/03/2024 00:53
Ασθενής βροχή, Συννεφιά
Ασθενής βροχή, Συννεφιά
 Ανεμος από ΝΔ
Ανεμος: ΝΔ 19 km/h, Ριπή: 35 km/h
Θερμοκρασία: 9°C
Wind Chill: 6°C
Σημείο Δρόσου: 7°C
Υγρασία: 87%
Βαρόμετρο: 1012.2 hPa
Περίληψη: Ασθενής βροχή
Clouds: Συννεφιά
Visibility: 16 km
Cloud details: Few Clouds 762 m
Συννεφιά 1433 m
2024/03/02 22:53 KWVI 022253Z AUTO 23010G19KT 10SM -RA FEW025 OVC047 09/07 A2989 RMK AO2 RAB26 SLP120 P0001 T00940067
KHAF - Half Moon Bay, California, USA
Distance from station: ΔΒΔ 50km
Ενημερώθηκε: 03/03/2024 01:15
Ασθενής βροχή, Haze, Σχεδόν νεφελώδης
Ασθενής βροχή, Haze, Σχεδόν νεφελώδης
 Ανεμος από ΔΝΔ
Ανεμος: ΔΝΔ 24 km/h
Θερμοκρασία: 9°C
Wind Chill: 6°C
Σημείο Δρόσου: 7°C
Υγρασία: 87%
Βαρόμετρο: 1010.5 hPa
Περίληψη: Ασθενής βροχή, Haze
Clouds: Σχεδόν νεφελώδης
Visibility: 3 km
Cloud details: Few Clouds 762 m
Σχεδόν νεφελώδης 975 m
Σχεδόν νεφελώδης 1189 m
2024/03/02 23:15 KHAF 022315Z AUTO 24013KT 2SM -RA HZ FEW025 BKN032 BKN039 09/07 A2984 RMK AO2
 
KHWD - Hayward, California, USA
Distance from station: Β 44km
Ενημερώθηκε: 03/03/2024 00:54
Ασθενής βροχή, Συννεφιά
Ασθενής βροχή, Συννεφιά
 Ανεμος από ΝΝΔ
Ανεμος: ΝΝΔ 28 km/h, Ριπή: 43 km/h
Θερμοκρασία: 12°C
Σημείο Δρόσου: 5°C
Υγρασία: 63%
Βαρόμετρο: 1009.8 hPa
Περίληψη: Ασθενής βροχή
Clouds: Συννεφιά
Visibility: 16 km
Cloud details: Few Clouds 1219 m
Συννεφιά 1829 m
2024/03/02 22:54 KHWD 022254Z 20015G23KT 10SM -RA FEW040 OVC060 12/05 A2982 RMK AO2 SLP108 P0000 T01220050
KLVK - Livermore, California, USA
Distance from station: ΒΒΑ 51km
Ενημερώθηκε: 03/03/2024 00:53
Συννεφιά
Συννεφιά
 Ανεμος από ΝΔ
Ανεμος: ΝΔ 19 km/h
Θερμοκρασία: 11°C
Σημείο Δρόσου: 3°C
Υγρασία: 58%
Βαρόμετρο: 1009.5 hPa
Clouds: Συννεφιά
Visibility: 16 km
Cloud details: Σχεδόν νεφελώδης 1829 m
Συννεφιά 2286 m
2024/03/02 22:53 KLVK 022253Z 22010KT 10SM BKN060 OVC075 11/03 A2981 RMK AO2 SLP094 T01060033